createdAt,value
2022-12-24T00:00:07.516Z,99707.78
2022-12-24T00:02:35.054Z,99713.94
2022-12-24T00:05:02.526Z,99716.75
2022-12-24T00:07:30.169Z,99717.78
2022-12-24T00:09:57.582Z,99717.06
2022-12-24T00:12:25.661Z,99712.59
2022-12-24T00:14:54.400Z,99718.09
2022-12-24T00:17:21.824Z,99720.75
2022-12-24T00:19:49.258Z,99706.78
2022-12-24T00:22:16.682Z,99705.09
2022-12-24T00:24:44.087Z,99710.44
2022-12-24T00:27:11.528Z,99706.78
2022-12-24T00:29:38.991Z,99705.75
2022-12-24T00:32:10.049Z,99707.75
2022-12-24T00:34:37.467Z,99708.75
2022-12-24T00:37:04.966Z,99710.78
2022-12-24T00:39:32.439Z,99702.63
2022-12-24T00:41:59.867Z,99704.09
2022-12-24T00:44:27.279Z,99717.41
2022-12-24T00:46:54.700Z,99714.59
2022-12-24T00:49:23.629Z,99722.59
2022-12-24T00:51:51.217Z,99721.94
2022-12-24T00:54:18.638Z,99723.09
2022-12-24T00:56:46.053Z,99725.94
2022-12-24T00:59:13.480Z,99732.25
2022-12-24T01:01:40.992Z,99741.94
2022-12-24T01:04:26.182Z,99737.75
2022-12-24T01:06:55.932Z,99743.91
2022-12-24T01:09:23.341Z,99753.06
2022-12-24T01:11:50.782Z,99740.09
2022-12-24T01:14:18.179Z,99746.75
2022-12-24T01:16:45.615Z,99747.56
2022-12-24T01:19:13.031Z,99755.22
2022-12-24T01:21:40.427Z,99759.06
2022-12-24T01:24:11.635Z,99754.56
2022-12-24T01:26:39.033Z,99756.41
2022-12-24T01:29:06.435Z,99756.41
2022-12-24T01:31:33.872Z,99763.03
2022-12-24T01:34:01.347Z,99753.41
2022-12-24T01:36:28.850Z,99762.38
2022-12-24T01:38:56.293Z,99759.38
2022-12-24T01:41:42.938Z,99761.72
2022-12-24T01:44:21.052Z,99753.41
2022-12-24T01:46:48.618Z,99759.72
2022-12-24T01:49:16.043Z,99763.38
2022-12-24T01:51:44.953Z,99776.69
2022-12-24T01:54:14.081Z,99779.72
2022-12-24T01:56:45.671Z,99783.06
2022-12-24T01:59:14.090Z,99780.03
2022-12-24T02:01:41.638Z,99788.69
2022-12-24T02:04:12.971Z,99789.03
2022-12-24T02:06:40.393Z,99790.88
2022-12-24T02:09:08.094Z,99800.34
2022-12-24T02:11:35.543Z,99801.66
2022-12-24T02:14:04.270Z,99807.84
2022-12-24T02:16:37.043Z,99814.34
2022-12-24T02:19:11.210Z,99817.19
2022-12-24T02:21:49.188Z,99815.81
2022-12-24T02:24:45.546Z,99810.84
2022-12-24T02:27:18.384Z,99820.81
2022-12-24T02:30:08.457Z,99832.47
2022-12-24T02:32:40.794Z,99842.97
2022-12-24T02:35:10.796Z,99849.44
2022-12-24T02:37:38.851Z,99847.59
2022-12-24T02:40:16.043Z,99846.94
2022-12-24T02:42:45.367Z,99842.63
2022-12-24T02:45:15.351Z,99851.44
2022-12-24T02:47:42.788Z,99851.28
2022-12-24T02:50:11.463Z,99848.63
2022-12-24T02:52:39.745Z,99853.94
2022-12-24T02:55:08.966Z,99855.94
2022-12-24T02:57:45.436Z,99861.25
2022-12-24T03:00:14.887Z,99865.75
2022-12-24T03:02:50.149Z,99869.25
2022-12-24T03:05:21.124Z,99873.56
2022-12-24T03:07:53.954Z,99874.75
2022-12-24T03:10:22.989Z,99877.25
2022-12-24T03:12:51.400Z,99878.22
2022-12-24T03:15:22.843Z,99883.72
2022-12-24T03:17:50.588Z,99883.41
2022-12-24T03:20:20.357Z,99888.88
2022-12-24T03:22:47.794Z,99889.56
2022-12-24T03:25:15.212Z,99893.91
2022-12-24T03:27:42.620Z,99895.19
2022-12-24T03:30:12.027Z,99902.19
2022-12-24T03:32:40.729Z,99898.56
2022-12-24T03:35:08.798Z,99906.53
2022-12-24T03:37:36.237Z,99904.88
2022-12-24T03:40:03.778Z,99911.03
2022-12-24T03:42:31.184Z,99912.19
2022-12-24T03:44:58.605Z,99914.03
2022-12-24T03:47:26.009Z,99921.69
2022-12-24T03:49:54.710Z,99927.84
2022-12-24T03:52:22.122Z,99936.53
2022-12-24T03:54:49.530Z,99936.53
2022-12-24T03:57:16.990Z,99941.19
2022-12-24T03:59:44.447Z,99943.84
2022-12-24T04:02:12.030Z,99950.97
2022-12-24T04:04:39.587Z,99958.13
2022-12-24T04:07:08.325Z,99958.13
2022-12-24T04:09:35.778Z,99956.47
2022-12-24T04:12:03.188Z,99951.31
2022-12-24T04:14:30.603Z,99953.97
2022-12-24T04:16:58.076Z,99961.97
2022-12-24T04:19:25.520Z,99956.66
2022-12-24T04:21:52.925Z,99956.47
2022-12-24T04:24:21.653Z,99954.81
2022-12-24T04:26:49.069Z,99943.13
2022-12-24T04:29:16.471Z,99945.13
2022-12-24T04:31:43.897Z,99952.13
2022-12-24T04:34:11.350Z,99961.97
2022-12-24T04:36:39.043Z,99980.44
2022-12-24T04:39:06.437Z,99977.59
2022-12-24T04:41:35.126Z,99986.63
2022-12-24T04:44:02.531Z,99986.09
2022-12-24T04:46:31.246Z,99991.41
2022-12-24T04:48:58.841Z,99999.25
2022-12-24T04:51:26.531Z,100009.06
2022-12-24T04:53:54.070Z,100004.03
2022-12-24T04:56:22.357Z,100008.38
2022-12-24T04:58:51.074Z,100011.88
2022-12-24T05:01:19.743Z,100006.41
2022-12-24T05:03:47.368Z,100008.38
2022-12-24T05:06:15.667Z,100023.53
2022-12-24T05:08:43.580Z,100025.34
2022-12-24T05:11:14.182Z,100025.91
2022-12-24T05:13:46.576Z,100034.03
2022-12-24T05:16:16.205Z,100035.03
2022-12-24T05:18:43.644Z,100032.66
2022-12-24T05:21:11.109Z,100032.66
2022-12-24T05:23:56.059Z,100024.53
2022-12-24T05:26:28.079Z,100020.88
2022-12-24T05:28:56.189Z,100032.50
2022-12-24T05:31:25.653Z,100035.16
2022-12-24T05:33:54.623Z,100018.53
2022-12-24T05:36:22.161Z,100032.66
2022-12-24T05:38:49.648Z,100034.34
2022-12-24T05:41:17.076Z,100037.69
2022-12-24T05:43:44.540Z,100033.03
2022-12-24T05:46:13.126Z,100032.88
2022-12-24T05:48:41.945Z,100036.72
2022-12-24T05:51:10.894Z,100039.09
2022-12-24T05:53:38.340Z,100042.75
2022-12-24T05:56:06.250Z,100048.91
2022-12-24T05:58:33.708Z,100058.75
2022-12-24T06:01:01.927Z,100049.75
2022-12-24T06:03:29.678Z,100061.41
2022-12-24T06:06:02.143Z,100061.72
2022-12-24T06:08:29.715Z,100061.72
2022-12-24T06:10:57.871Z,100060.56
2022-12-24T06:13:25.479Z,100058.03
2022-12-24T06:15:55.022Z,100067.03
2022-12-24T06:18:22.487Z,100066.38
2022-12-24T06:20:51.721Z,100072.69
2022-12-24T06:23:20.515Z,100081.34
2022-12-24T06:25:48.144Z,100084.88
2022-12-24T06:28:15.591Z,100083.34
2022-12-24T06:30:43.355Z,100078.00
2022-12-24T06:33:10.780Z,100079.69
2022-12-24T06:35:38.208Z,100081.66
2022-12-24T06:38:05.644Z,100094.00
2022-12-24T06:40:34.341Z,100098.50
2022-12-24T06:43:01.771Z,100099.31
2022-12-24T06:45:29.189Z,100095.16
2022-12-24T06:47:56.631Z,100102.97
2022-12-24T06:50:24.024Z,100100.16
2022-12-24T06:52:51.423Z,100117.28
2022-12-24T06:55:18.889Z,100118.78
2022-12-24T06:57:47.574Z,100108.13
2022-12-24T07:00:15.519Z,100122.16
2022-12-24T07:02:43.030Z,100124.81
2022-12-24T07:05:10.935Z,100131.28
2022-12-24T07:07:38.563Z,100131.28
2022-12-24T07:10:07.096Z,100128.47
2022-12-24T07:12:34.546Z,100137.44
2022-12-24T07:15:03.312Z,100140.81
2022-12-24T07:17:30.819Z,100146.50
2022-12-24T07:19:58.287Z,100151.28
2022-12-24T07:22:25.712Z,100161.25
2022-12-24T07:24:53.128Z,100160.94
2022-12-24T07:27:20.989Z,100168.13
2022-12-24T07:29:48.452Z,100164.28
2022-12-24T07:32:17.241Z,100173.16
2022-12-24T07:34:44.648Z,100175.25
2022-12-24T07:37:12.099Z,100183.06
2022-12-24T07:39:39.534Z,100186.16
2022-12-24T07:42:07.969Z,100182.13
2022-12-24T07:44:36.599Z,100180.72
2022-12-24T07:47:04.075Z,100187.06
2022-12-24T07:49:49.789Z,100183.72
2022-12-24T07:52:17.242Z,100199.41
2022-12-24T07:54:44.672Z,100198.25
2022-12-24T07:57:12.097Z,100203.28
2022-12-24T07:59:39.686Z,100214.84
2022-12-24T08:02:09.910Z,100220.69
2022-12-24T08:04:41.855Z,100211.00
2022-12-24T08:07:10.715Z,100222.84
2022-12-24T08:09:39.689Z,100216.31
2022-12-24T08:12:07.485Z,100206.09
2022-12-24T08:14:35.569Z,100215.78
2022-12-24T08:17:03.062Z,100221.25
2022-12-24T08:19:30.479Z,100221.09
2022-12-24T08:21:57.927Z,100213.25
2022-12-24T08:24:26.807Z,100220.88
2022-12-24T08:26:54.227Z,100213.31
2022-12-24T08:29:21.666Z,100215.31
2022-12-24T08:31:49.228Z,100226.94
2022-12-24T08:34:16.656Z,100231.59
2022-12-24T08:36:44.079Z,100231.28
2022-12-24T08:39:11.510Z,100229.47
2022-12-24T08:41:40.235Z,100231.44
2022-12-24T08:44:07.636Z,100227.09
2022-12-24T08:46:35.120Z,100236.25
2022-12-24T08:49:02.543Z,100237.75
2022-12-24T08:51:29.982Z,100237.00
2022-12-24T08:53:57.420Z,100251.00
2022-12-24T08:56:25.050Z,100247.66
2022-12-24T08:58:53.817Z,100255.81
2022-12-24T09:01:21.482Z,100255.41
2022-12-24T09:03:49.063Z,100252.38
2022-12-24T09:06:16.729Z,100255.41
2022-12-24T09:08:44.324Z,100252.38
2022-12-24T09:11:12.525Z,100262.94
2022-12-24T09:13:39.989Z,100275.28
2022-12-24T09:16:09.237Z,100268.28
2022-12-24T09:18:36.868Z,100275.28
2022-12-24T09:21:06.705Z,100273.47
2022-12-24T09:23:35.828Z,100285.47
2022-12-24T09:26:05.765Z,100285.47
2022-12-24T09:28:33.189Z,100285.81
2022-12-24T09:31:01.384Z,100291.13
2022-12-24T09:33:30.891Z,100288.91
2022-12-24T09:35:58.359Z,100295.22
2022-12-24T09:38:25.845Z,100293.56
2022-12-24T09:40:53.323Z,100295.22
2022-12-24T09:43:22.330Z,100306.03
2022-12-24T09:45:53.585Z,100314.88
2022-12-24T09:48:23.995Z,100320.22
2022-12-24T09:50:54.233Z,100324.00
2022-12-24T09:53:23.273Z,100339.84
2022-12-24T09:55:52.101Z,100335.66
2022-12-24T09:58:22.521Z,100343.47
2022-12-24T10:00:50.519Z,100348.50
2022-12-24T10:03:18.170Z,100337.47
2022-12-24T10:05:48.468Z,100341.81
2022-12-24T10:08:22.717Z,100348.97
2022-12-24T10:10:52.265Z,100351.66
2022-12-24T10:13:25.087Z,100360.63
2022-12-24T10:15:55.436Z,100359.47
2022-12-24T10:18:27.765Z,100359.78
2022-12-24T10:20:58.119Z,100361.59
2022-12-24T10:23:29.699Z,100364.25
2022-12-24T10:26:14.321Z,100367.78
2022-12-24T10:28:45.014Z,100376.75
2022-12-24T10:31:12.827Z,100374.09
2022-12-24T10:33:42.472Z,100382.75
2022-12-24T10:36:12.426Z,100387.41
2022-12-24T10:38:41.345Z,100384.88
2022-12-24T10:41:09.136Z,100388.38
2022-12-24T10:43:36.839Z,100388.56
2022-12-24T10:46:05.887Z,100389.97
2022-12-24T10:48:34.820Z,100402.63
2022-12-24T10:51:04.527Z,100406.13
2022-12-24T10:53:39.249Z,100408.38
2022-12-24T10:56:09.289Z,100403.69
2022-12-24T10:58:36.694Z,100400.78
2022-12-24T11:01:05.165Z,100408.13
2022-12-24T11:03:33.676Z,100410.03
2022-12-24T11:06:08.689Z,100415.69
2022-12-24T11:08:36.587Z,100415.91
2022-12-24T11:11:05.321Z,100429.81
2022-12-24T11:13:38.497Z,100433.53
2022-12-24T11:16:07.562Z,100431.09
2022-12-24T11:18:35.925Z,100436.56
2022-12-24T11:21:03.395Z,100429.28
2022-12-24T11:23:30.831Z,100436.44
2022-12-24T11:25:58.286Z,100430.41
2022-12-24T11:28:26.589Z,100431.38
2022-12-24T11:31:03.292Z,100441.06
2022-12-24T11:33:31.333Z,100440.78
2022-12-24T11:36:05.069Z,100444.72
2022-12-24T11:38:33.246Z,100432.94
2022-12-24T11:41:05.918Z,100449.78
2022-12-24T11:43:45.144Z,100456.59
2022-12-24T11:46:19.407Z,100454.91
2022-12-24T11:48:47.044Z,100445.84
2022-12-24T11:51:22.624Z,100451.97
2022-12-24T11:53:51.451Z,100456.19
2022-12-24T11:56:26.370Z,100457.16
2022-12-24T11:58:56.050Z,100460.25
2022-12-24T12:01:25.571Z,100459.28
2022-12-24T12:03:54.628Z,100470.75
2022-12-24T12:06:27.139Z,100474.09
2022-12-24T12:08:56.882Z,100463.47
2022-12-24T12:11:24.292Z,100474.97
2022-12-24T12:13:51.711Z,100479.16
2022-12-24T12:16:21.734Z,100475.50
2022-12-24T12:18:53.905Z,100478.72
2022-12-24T12:21:22.157Z,100478.72
2022-12-24T12:23:51.059Z,100476.91
2022-12-24T12:26:19.949Z,100481.38
2022-12-24T12:28:50.203Z,100480.53
2022-12-24T12:31:20.208Z,100487.53
2022-12-24T12:33:48.659Z,100483.06
2022-12-24T12:36:18.784Z,100492.59
2022-12-24T12:38:46.203Z,100488.94
2022-12-24T12:41:24.843Z,100502.22
2022-12-24T12:44:01.684Z,100506.59
2022-12-24T12:46:33.145Z,100505.63
2022-12-24T12:49:16.460Z,100511.63
2022-12-24T12:51:47.674Z,100500.28
2022-12-24T12:54:32.676Z,100504.63
2022-12-24T12:57:03.593Z,100509.81
2022-12-24T12:59:34.774Z,100509.94
2022-12-24T13:02:04.726Z,100509.81
2022-12-24T13:05:00.228Z,100507.97
2022-12-24T13:07:55.913Z,100517.66
2022-12-24T13:10:36.509Z,100521.84
2022-12-24T13:13:21.627Z,100516.50
2022-12-24T13:15:58.653Z,100523.38
2022-12-24T13:18:38.839Z,100522.56
2022-12-24T13:21:06.237Z,100522.41
2022-12-24T13:23:35.084Z,100527.75
2022-12-24T13:26:03.318Z,100521.41
2022-12-24T13:28:35.168Z,100519.75
2022-12-24T13:31:29.615Z,100528.44
2022-12-24T13:34:03.501Z,100530.81
2022-12-24T13:37:01.469Z,100533.47
2022-12-24T13:39:30.159Z,100531.50
2022-12-24T13:41:57.741Z,100535.00
2022-12-24T13:44:32.491Z,100545.50
2022-12-24T13:47:03.217Z,100548.88
2022-12-24T13:49:32.955Z,100558.69
2022-12-24T13:52:18.603Z,100558.13
2022-12-24T13:54:50.070Z,100565.97
2022-12-24T13:57:35.113Z,100574.09
2022-12-24T14:00:04.934Z,100575.50
2022-12-24T14:02:40.410Z,100584.47
2022-12-24T14:05:09.652Z,100581.94
2022-12-24T14:07:37.215Z,100591.47
2022-12-24T14:10:07.226Z,100592.03
2022-12-24T14:12:47.578Z,100596.78
2022-12-24T14:16:06.791Z,100593.16
2022-12-24T14:18:36.426Z,100600.16
2022-12-24T14:21:03.844Z,100606.47
2022-12-24T14:23:52.284Z,100602.81
2022-12-24T14:26:22.957Z,100604.38
2022-12-24T14:28:54.919Z,100606.03
2022-12-24T14:31:22.401Z,100605.88
2022-12-24T14:33:49.848Z,100609.56
2022-12-24T14:36:20.975Z,100616.41
2022-12-24T14:38:48.393Z,100611.22
2022-12-24T14:41:36.725Z,100615.72
2022-12-24T14:44:09.505Z,100621.88
2022-12-24T14:46:40.809Z,100627.59
2022-12-24T14:49:12.497Z,100633.25
2022-12-24T14:51:42.287Z,100633.25
2022-12-24T14:54:24.758Z,100645.56
2022-12-24T14:57:15.298Z,100640.22
2022-12-24T14:59:44.601Z,100641.94
2022-12-24T15:02:23.838Z,100649.91
2022-12-24T15:05:04.502Z,100652.44
2022-12-24T15:07:31.951Z,100655.94
2022-12-24T15:09:59.344Z,100666.59
2022-12-24T15:12:28.032Z,100654.25
2022-12-24T15:14:55.454Z,100667.69
2022-12-24T15:17:22.856Z,100672.19
2022-12-24T15:19:52.490Z,100672.59
2022-12-24T15:22:22.862Z,100680.19
2022-12-24T15:24:50.268Z,100680.03
2022-12-24T15:27:18.360Z,100682.56
2022-12-24T15:29:48.416Z,100681.59
2022-12-24T15:32:18.174Z,100692.38
2022-12-24T15:34:46.472Z,100690.41
2022-12-24T15:37:16.158Z,100697.72
2022-12-24T15:39:43.569Z,100696.56
2022-12-24T15:42:18.492Z,100701.22
2022-12-24T15:44:50.360Z,100700.25
2022-12-24T15:47:18.936Z,100707.22
2022-12-24T15:49:47.835Z,100705.25
2022-12-24T15:52:16.180Z,100707.22
2022-12-24T15:54:44.750Z,100717.19
2022-12-24T15:57:16.065Z,100714.25
2022-12-24T15:59:43.486Z,100724.91
2022-12-24T16:02:35.553Z,100733.84
2022-12-24T16:05:32.478Z,100730.38
2022-12-24T16:08:10.391Z,100730.38
2022-12-24T16:10:39.978Z,100732.75
2022-12-24T16:13:15.082Z,100731.91
2022-12-24T16:15:45.928Z,100725.72
2022-12-24T16:18:18.479Z,100729.38
2022-12-24T16:20:49.592Z,100739.19
2022-12-24T16:23:18.693Z,100742.53
2022-12-24T16:25:46.096Z,100745.50
2022-12-24T16:28:20.240Z,100741.84
2022-12-24T16:30:49.751Z,100740.88
2022-12-24T16:33:19.197Z,100749.84
2022-12-24T16:35:46.874Z,100749.84
2022-12-24T16:38:14.431Z,100746.22
2022-12-24T16:40:41.839Z,100746.22
2022-12-24T16:43:26.869Z,100750.66
2022-12-24T16:45:54.435Z,100747.88
2022-12-24T16:48:23.769Z,100756.84
2022-12-24T16:50:51.709Z,100753.50
2022-12-24T16:53:19.702Z,100761.19
2022-12-24T16:55:47.644Z,100760.22
2022-12-24T16:58:15.882Z,100761.06
2022-12-24T17:00:43.293Z,100777.91
2022-12-24T17:03:10.794Z,100774.50
2022-12-24T17:05:39.764Z,100771.00
2022-12-24T17:08:07.317Z,100782.34
2022-12-24T17:10:34.882Z,100781.53
2022-12-24T17:13:02.343Z,100785.16
2022-12-24T17:15:29.941Z,100786.84
2022-12-24T17:17:57.445Z,100795.53
2022-12-24T17:20:24.991Z,100789.91
2022-12-24T17:22:53.829Z,100794.97
2022-12-24T17:25:21.481Z,100792.88
2022-12-24T17:27:48.917Z,100794.72
2022-12-24T17:30:17.214Z,100803.66
2022-12-24T17:32:44.733Z,100809.25
2022-12-24T17:35:12.154Z,100817.41
2022-12-24T17:37:39.674Z,100821.03
2022-12-24T17:40:10.189Z,100819.22
2022-12-24T17:42:37.643Z,100817.97
2022-12-24T17:45:05.944Z,100810.13
2022-12-24T17:47:33.401Z,100821.75
2022-12-24T17:50:00.851Z,100817.41
2022-12-24T17:52:28.294Z,100820.06
2022-12-24T17:54:55.774Z,100819.09
2022-12-24T17:57:24.532Z,100824.13
2022-12-24T17:59:51.999Z,100828.63
2022-12-24T18:02:19.555Z,100831.44
2022-12-24T18:04:47.239Z,100834.78
2022-12-24T18:07:14.667Z,100836.75
2022-12-24T18:09:44.141Z,100842.91
2022-12-24T18:12:11.577Z,100846.53
2022-12-24T18:14:40.362Z,100855.53
2022-12-24T18:17:07.894Z,100858.91
2022-12-24T18:19:35.394Z,100863.66
2022-12-24T18:22:02.848Z,100854.69
2022-12-24T18:24:30.290Z,100867.28
2022-12-24T18:26:57.800Z,100859.03
2022-12-24T18:29:25.279Z,100867.16
2022-12-24T18:31:54.115Z,100870.69
2022-12-24T18:34:21.625Z,100867.16
2022-12-24T18:36:54.842Z,100872.34
2022-12-24T18:39:22.775Z,100875.00
2022-12-24T18:41:50.466Z,100876.84
2022-12-24T18:44:24.251Z,100884.00
2022-12-24T18:46:54.089Z,100877.66
2022-12-24T18:49:21.635Z,100884.00
2022-12-24T18:51:49.088Z,100884.00
2022-12-24T18:54:16.554Z,100888.06
2022-12-24T18:56:44.096Z,100888.31
2022-12-24T18:59:11.585Z,100886.50
2022-12-24T19:01:39.210Z,100890.84
2022-12-24T19:04:08.239Z,100897.16
2022-12-24T19:06:35.766Z,100900.69
2022-12-24T19:09:03.316Z,100893.66
2022-12-24T19:11:32.504Z,100898.97
2022-12-24T19:14:00.192Z,100899.97
2022-12-24T19:16:27.888Z,100899.97
2022-12-24T19:18:55.407Z,100911.59
2022-12-24T19:21:24.288Z,100894.78
2022-12-24T19:23:51.868Z,100891.97
2022-12-24T19:26:20.041Z,100897.44
2022-12-24T19:28:47.565Z,100899.97
2022-12-24T19:31:16.498Z,100908.09
2022-12-24T19:33:45.196Z,100907.09
2022-12-24T19:36:15.099Z,100908.09
2022-12-24T19:38:43.856Z,100906.25
2022-12-24T19:41:13.168Z,100914.25
2022-12-24T19:43:41.323Z,100920.28
2022-12-24T19:46:09.512Z,100927.56
2022-12-24T19:48:37.340Z,100920.53
2022-12-24T19:51:05.735Z,100925.88
2022-12-24T19:53:33.241Z,100934.59
2022-12-24T19:56:02.051Z,100933.72
2022-12-24T19:58:29.516Z,100938.22
2022-12-24T20:00:57.061Z,100942.84
2022-12-24T20:03:24.671Z,100941.84
2022-12-24T20:05:52.209Z,100941.84
2022-12-24T20:08:19.697Z,100947.19
2022-12-24T20:10:47.174Z,100940.19
2022-12-24T20:13:15.959Z,100943.69
2022-12-24T20:15:45.017Z,100946.09
2022-12-24T20:18:13.292Z,100938.34
2022-12-24T20:20:40.809Z,100936.53
2022-12-24T20:23:08.486Z,100941.16
2022-12-24T20:25:36.229Z,100951.53
2022-12-24T20:28:03.763Z,100950.72
2022-12-24T20:30:32.713Z,100945.50
2022-12-24T20:33:00.241Z,100942.72
2022-12-24T20:35:27.737Z,100943.81
2022-12-24T20:37:55.232Z,100951.81
2022-12-24T20:40:22.703Z,100946.47
2022-12-24T20:42:50.217Z,100954.34
2022-12-24T20:45:17.902Z,100949.97
2022-12-24T20:47:46.680Z,100956.28
2022-12-24T20:50:14.153Z,100958.13
2022-12-24T20:52:41.965Z,100964.16
2022-12-24T20:55:09.456Z,100970.44
2022-12-24T20:57:36.982Z,100968.47
2022-12-24T21:00:05.261Z,100968.78
2022-12-24T21:02:32.935Z,100973.09
2022-12-24T21:05:02.771Z,100972.13
2022-12-24T21:07:30.367Z,100973.94
2022-12-24T21:09:57.774Z,100974.09
2022-12-24T21:12:43.134Z,100975.06
2022-12-24T21:15:11.075Z,100983.06
2022-12-24T21:17:38.503Z,100975.06
2022-12-24T21:20:08.516Z,100978.44
2022-12-24T21:22:35.923Z,100989.09
2022-12-24T21:25:03.391Z,100991.75
2022-12-24T21:27:31.858Z,100995.41
2022-12-24T21:29:59.317Z,100987.25
2022-12-24T21:32:26.807Z,100999.75
2022-12-24T21:34:54.266Z,100991.75
2022-12-24T21:37:22.989Z,100984.75
2022-12-24T21:39:50.671Z,100987.53
2022-12-24T21:42:18.101Z,100997.06
2022-12-24T21:44:45.501Z,101003.53
2022-12-24T21:47:12.920Z,101000.84
2022-12-24T21:49:57.866Z,101010.66
2022-12-24T21:52:26.580Z,101015.72
2022-12-24T21:54:53.133Z,101017.53
2022-12-24T21:57:38.250Z,101024.09
2022-12-24T22:00:22.605Z,101029.16
2022-12-24T22:02:52.900Z,101035.47
2022-12-24T22:05:20.696Z,101041.78
2022-12-24T22:08:07.350Z,101039.94
2022-12-24T22:10:52.427Z,101038.97
2022-12-24T22:13:19.898Z,101050.47
2022-12-24T22:15:48.242Z,101048.78
2022-12-24T22:18:16.124Z,101049.06
2022-12-24T22:20:43.966Z,101042.88
2022-12-24T22:23:12.859Z,101048.91
2022-12-24T22:25:40.306Z,101050.88
2022-12-24T22:28:07.903Z,101052.53
2022-12-24T22:30:37.396Z,101055.91
2022-12-24T22:33:05.278Z,101061.38
2022-12-24T22:35:32.709Z,101048.22
2022-12-24T22:38:00.705Z,101061.53
2022-12-24T22:40:29.658Z,101057.03
2022-12-24T22:42:57.091Z,101072.19
2022-12-24T22:45:24.631Z,101076.50
2022-12-24T22:47:52.042Z,101076.50
2022-12-24T22:50:19.520Z,101081.00
2022-12-24T22:52:46.939Z,101073.84
2022-12-24T22:55:14.368Z,101084.50
2022-12-24T22:57:43.074Z,101089.94
2022-12-24T23:00:12.105Z,101094.31
2022-12-24T23:02:39.620Z,101098.53
2022-12-24T23:05:07.707Z,101100.47
2022-12-24T23:07:35.111Z,101105.81
2022-12-24T23:10:02.569Z,101108.59
2022-12-24T23:12:44.013Z,101106.06
2022-12-24T23:15:12.941Z,101109.72
2022-12-24T23:17:40.355Z,101113.09
2022-12-24T23:20:08.851Z,101108.59
2022-12-24T23:22:36.247Z,101107.75
2022-12-24T23:25:03.845Z,101113.09
2022-12-24T23:27:31.254Z,101111.38
2022-12-24T23:29:58.846Z,101113.09
2022-12-24T23:32:27.568Z,101106.06
2022-12-24T23:34:54.964Z,101110.53
2022-12-24T23:37:22.355Z,101112.25
2022-12-24T23:39:50.035Z,101113.34
2022-12-24T23:42:17.475Z,101106.06
2022-12-24T23:44:44.876Z,101107.06
2022-12-24T23:47:12.277Z,101104.38
2022-12-24T23:49:40.958Z,101103.50
2022-12-24T23:52:08.513Z,101104.38
2022-12-24T23:54:35.950Z,101098.94
2022-12-24T23:57:03.351Z,101099.06
2022-12-24T23:59:30.743Z,101094.69
